Time;durP1;ratioP1;P1;durP2;ratioP2;P2;SDS_P1;SDS_P2;PMS_P1;PMS_P2;Temp;Humidity;BMP_temperature;BMP_pressure;BME280_temperature;BME280_humidity;BME280_pressure;Samples;Min_cycle;Max_cycle;Signal;HPM_P1;HPM_P2
2024/01/06 00:01:39;;;;;;;7.10;5.38;;;5.70;99.90;;;;;;5010202;28;20108;-72
2024/01/06 00:04:05;;;;;;;8.23;5.43;;;5.70;99.90;;;;;;4994399;28;20389;-72
2024/01/06 00:06:30;;;;;;;7.72;5.38;;;5.70;99.90;;;;;;5008185;28;20122;-72
2024/01/06 00:08:56;;;;;;;9.02;5.75;;;5.70;99.90;;;;;;5013269;28;20092;-71
2024/01/06 00:11:23;;;;;;;6.38;5.07;;;5.70;99.90;;;;;;4997511;28;20108;-73
2024/01/06 00:13:49;;;;;;;5.97;5.22;;;5.70;99.90;;;;;;5012618;28;20040;-72
2024/01/06 00:16:18;;;;;;;7.32;5.00;;;5.70;99.90;;;;;;4995986;28;20018;-72
2024/01/06 00:18:44;;;;;;;8.55;6.47;;;5.70;99.90;;;;;;4986010;28;20033;-71
2024/01/06 00:21:10;;;;;;;6.65;5.28;;;5.70;99.90;;;;;;5005894;28;20033;-72
2024/01/06 00:23:35;;;;;;;6.13;4.70;;;5.70;99.90;;;;;;5005910;28;20033;-72
2024/01/06 00:26:02;;;;;;;7.22;5.20;;;5.70;99.90;;;;;;5011849;28;20640;-72
2024/01/06 00:28:28;;;;;;;6.97;5.35;;;5.70;99.90;;;;;;4996250;28;20054;-72
2024/01/06 00:30:53;;;;;;;6.82;4.75;;;5.70;99.90;;;;;;4991711;28;20040;-72
2024/01/06 00:33:19;;;;;;;7.03;4.53;;;5.70;99.90;;;;;;5006057;28;20036;-72
2024/01/06 00:35:44;;;;;;;8.13;4.88;;;5.70;99.90;;;;;;5008319;28;20475;-72
2024/01/06 00:38:10;;;;;;;7.60;4.75;;;5.70;99.90;;;;;;5013323;28;20094;-72
2024/01/06 00:40:36;;;;;;;6.03;4.70;;;5.80;99.90;;;;;;4994857;28;20029;-73
2024/01/06 00:43:01;;;;;;;9.15;4.57;;;5.80;99.90;;;;;;5005473;28;20041;-73
2024/01/06 00:45:27;;;;;;;6.85;4.95;;;5.80;99.90;;;;;;5005400;28;20506;-72
2024/01/06 00:47:53;;;;;;;6.55;4.45;;;5.70;99.90;;;;;;5016230;28;20073;-72
2024/01/06 00:50:19;;;;;;;6.95;4.80;;;5.70;99.90;;;;;;5009618;28;20055;-72
2024/01/06 00:52:45;;;;;;;4.95;4.45;;;5.70;99.90;;;;;;5010242;28;20116;-73
2024/01/06 00:55:11;;;;;;;5.80;4.82;;;5.60;99.90;;;;;;5007644;28;20479;-73
2024/01/06 00:57:37;;;;;;;7.47;5.35;;;5.60;99.90;;;;;;5008916;28;20022;-72
2024/01/06 01:00:05;;;;;;;6.57;5.38;;;5.60;99.90;;;;;;4993907;28;20098;-72
2024/01/06 01:02:31;;;;;;;12.32;10.10;;;5.60;99.90;;;;;;4996000;28;20089;-73
2024/01/06 01:04:57;;;;;;;8.38;6.93;;;5.60;99.90;;;;;;5014669;28;20030;-74
2024/01/06 01:07:24;;;;;;;10.60;8.48;;;5.70;99.90;;;;;;5014195;28;20026;-73
2024/01/06 01:09:59;;;;;;;10.48;7.68;;;5.70;99.90;;;;;;4997373;28;20030;-73
2024/01/06 01:12:24;;;;;;;7.82;5.85;;;5.60;99.90;;;;;;5025341;28;20041;-73
2024/01/06 01:14:52;;;;;;;7.50;4.95;;;5.50;99.90;;;;;;5020329;28;20022;-73
2024/01/06 01:17:18;;;;;;;10.18;5.13;;;5.40;99.90;;;;;;5000654;28;20107;-71
2024/01/06 01:19:44;;;;;;;5.15;4.65;;;5.40;99.90;;;;;;5019346;28;20042;-71
2024/01/06 01:22:10;;;;;;;5.07;4.20;;;5.30;99.90;;;;;;5009277;28;20027;-73
2024/01/06 01:24:36;;;;;;;5.72;5.10;;;5.40;99.90;;;;;;5006420;28;20033;-71
2024/01/06 01:27:01;;;;;;;7.28;4.47;;;5.50;99.90;;;;;;5010612;28;20041;-72
2024/01/06 01:29:27;;;;;;;6.20;4.53;;;5.50;99.90;;;;;;5012839;28;20022;-72
2024/01/06 01:31:53;;;;;;;5.53;4.75;;;5.50;99.90;;;;;;5008679;28;20030;-72
2024/01/06 01:34:19;;;;;;;5.25;4.68;;;5.50;99.90;;;;;;4993912;28;20096;-73
2024/01/06 01:36:45;;;;;;;5.18;4.60;;;5.50;99.90;;;;;;5012896;28;20021;-72
2024/01/06 01:39:11;;;;;;;7.95;4.55;;;5.60;99.90;;;;;;5002462;28;20030;-73
2024/01/06 01:41:36;;;;;;;6.50;4.68;;;5.60;99.90;;;;;;5007768;28;20029;-72
2024/01/06 01:44:02;;;;;;;6.07;5.20;;;5.60;99.90;;;;;;5004966;28;20042;-72
2024/01/06 01:46:30;;;;;;;6.35;4.47;;;5.60;99.90;;;;;;5007642;28;20037;-72
2024/01/06 01:48:57;;;;;;;5.25;4.53;;;5.70;99.90;;;;;;4988191;28;20400;-73
2024/01/06 01:51:24;;;;;;;5.32;4.13;;;5.60;99.90;;;;;;4998454;28;20034;-72
2024/01/06 01:53:50;;;;;;;5.32;4.28;;;5.60;99.90;;;;;;5002928;28;20037;-72
2024/01/06 01:56:17;;;;;;;5.88;4.35;;;5.70;99.90;;;;;;4999260;28;20029;-72
2024/01/06 01:58:43;;;;;;;6.30;4.78;;;5.60;99.90;;;;;;4989749;28;20026;-72
2024/01/06 02:01:09;;;;;;;5.82;4.88;;;5.60;99.90;;;;;;5007983;28;20061;-72
2024/01/06 02:03:35;;;;;;;4.28;3.80;;;5.70;99.90;;;;;;5011617;28;20081;-72
2024/01/06 02:06:04;;;;;;;7.10;4.07;;;5.70;99.90;;;;;;5009256;28;20034;-72
2024/01/06 02:08:30;;;;;;;6.18;4.47;;;5.70;99.90;;;;;;5009061;28;20515;-73
2024/01/06 02:10:58;;;;;;;6.43;4.80;;;5.60;99.90;;;;;;4993685;28;20026;-71
2024/01/06 02:13:32;;;;;;;6.03;4.47;;;5.60;99.90;;;;;;5007850;28;20026;-71
2024/01/06 02:16:01;;;;;;;6.78;4.50;;;5.50;99.90;;;;;;5002832;28;20035;-73
2024/01/06 02:18:27;;;;;;;9.43;5.25;;;5.50;99.90;;;;;;5010190;28;20037;-72
2024/01/06 02:20:54;;;;;;;6.20;4.15;;;5.50;99.90;;;;;;5005210;28;20026;-72
2024/01/06 02:23:20;;;;;;;7.37;4.80;;;5.50;99.90;;;;;;5010216;28;20046;-73
2024/01/06 02:25:46;;;;;;;8.20;5.13;;;5.50;99.90;;;;;;5004829;28;20037;-73
2024/01/06 02:28:14;;;;;;;7.65;4.53;;;5.50;99.90;;;;;;5012791;28;20077;-72
2024/01/06 02:30:43;;;;;;;;;;;5.50;99.90;;;;;;5001034;28;20078;-73
2024/01/06 02:33:15;;;;;;;5.10;4.30;;;5.40;99.90;;;;;;4994352;28;19909;-73
2024/01/06 02:35:41;;;;;;;8.25;5.18;;;5.40;99.90;;;;;;5008852;28;20053;-73
2024/01/06 02:38:08;;;;;;;9.18;5.68;;;5.40;99.90;;;;;;5011511;28;20033;-73
2024/01/06 02:40:34;;;;;;;5.85;4.70;;;5.40;99.90;;;;;;5008128;28;20034;-72
2024/01/06 02:43:00;;;;;;;6.30;4.00;;;5.30;99.90;;;;;;5011480;28;20025;-73
2024/01/06 02:45:25;;;;;;;5.15;3.88;;;5.20;99.90;;;;;;5005396;28;20022;-73
2024/01/06 02:47:51;;;;;;;6.80;4.47;;;5.20;99.90;;;;;;5010606;28;20431;-73
2024/01/06 02:50:17;;;;;;;6.75;3.90;;;5.20;99.90;;;;;;5014582;28;20112;-73
2024/01/06 02:52:44;;;;;;;5.60;4.15;;;5.20;99.90;;;;;;5012721;28;20017;-73
2024/01/06 02:55:09;;;;;;;5.65;3.28;;;5.20;99.90;;;;;;5012789;28;20495;-72
2024/01/06 02:57:36;;;;;;;3.53;2.58;;;5.10;99.90;;;;;;5008800;28;20022;-72
2024/01/06 03:00:03;;;;;;;4.50;2.95;;;5.10;99.90;;;;;;5016066;28;20026;-72
2024/01/06 03:02:28;;;;;;;4.20;3.05;;;5.00;99.90;;;;;;5027341;28;20140;-73
2024/01/06 03:04:54;;;;;;;4.88;3.15;;;5.00;99.90;;;;;;5034524;28;20060;-73
2024/01/06 03:07:21;;;;;;;3.10;2.83;;;5.00;99.90;;;;;;5034121;28;20037;-73
2024/01/06 03:09:46;;;;;;;4.68;2.58;;;5.00;99.90;;;;;;5027519;28;20112;-73
2024/01/06 03:12:15;;;;;;;3.40;3.10;;;4.90;99.90;;;;;;5019740;28;20059;-73
2024/01/06 03:14:41;;;;;;;4.15;2.78;;;4.90;99.90;;;;;;5009269;28;20482;-73
2024/01/06 03:17:06;;;;;;;4.15;2.60;;;4.90;99.90;;;;;;5032654;28;20037;-72
2024/01/06 03:19:32;;;;;;;2.20;2.05;;;4.80;99.90;;;;;;5032420;28;20021;-73
2024/01/06 03:21:58;;;;;;;2.65;2.42;;;4.80;99.90;;;;;;5026539;28;20553;-73
2024/01/06 03:24:26;;;;;;;8.00;3.10;;;4.80;99.90;;;;;;5027916;28;20057;-73
2024/01/06 03:26:52;;;;;;;2.58;2.15;;;4.80;99.90;;;;;;5030717;28;20387;-73
2024/01/06 03:29:18;;;;;;;3.67;2.38;;;4.90;99.90;;;;;;5025206;28;20034;-73
2024/01/06 03:31:45;;;;;;;2.83;2.05;;;4.80;99.90;;;;;;5030678;28;20522;-74
2024/01/06 03:34:13;;;;;;;6.47;2.50;;;4.80;99.90;;;;;;5026725;28;20026;-74
2024/01/06 03:36:39;;;;;;;3.72;2.53;;;4.80;99.90;;;;;;5028332;28;20074;-73
2024/01/06 03:39:17;;;;;;;5.38;2.67;;;4.70;99.90;;;;;;5021909;28;20467;-73
2024/01/06 03:41:47;;;;;;;2.75;2.22;;;4.70;99.90;;;;;;5028742;28;20056;-74
2024/01/06 03:44:13;;;;;;;2.28;2.08;;;4.70;99.90;;;;;;5013814;28;20658;-73
2024/01/06 03:46:42;;;;;;;5.22;2.58;;;4.70;99.90;;;;;;5035030;28;20025;-73
2024/01/06 03:49:08;;;;;;;5.50;2.08;;;4.80;99.90;;;;;;5026236;28;20159;-74
2024/01/06 03:51:33;;;;;;;3.80;1.90;;;4.70;99.90;;;;;;5030907;28;20025;-73
2024/01/06 03:53:59;;;;;;;3.33;2.20;;;4.80;99.90;;;;;;5016693;28;20032;-73
2024/01/06 03:56:25;;;;;;;3.10;2.00;;;4.70;99.90;;;;;;5025324;28;20028;-73
2024/01/06 03:58:50;;;;;;;2.65;2.30;;;4.70;99.90;;;;;;5024930;28;20034;-73
2024/01/06 04:01:16;;;;;;;2.03;1.40;;;4.80;99.90;;;;;;5025837;28;20088;-74
2024/01/06 04:03:42;;;;;;;3.58;1.67;;;4.70;99.90;;;;;;5025728;28;20499;-73
2024/01/06 04:06:08;;;;;;;3.20;1.70;;;4.60;99.90;;;;;;5024301;28;20029;-73
2024/01/06 04:08:35;;;;;;;1.98;1.75;;;4.50;99.90;;;;;;5022989;28;20021;-73
2024/01/06 04:11:00;;;;;;;14.50;2.67;;;4.50;99.90;;;;;;5002989;28;20501;-73
2024/01/06 04:13:26;;;;;;;3.72;1.60;;;4.50;99.90;;;;;;5027133;28;20021;-74
2024/01/06 04:15:52;;;;;;;2.95;1.40;;;4.50;99.90;;;;;;5032784;28;20574;-73
2024/01/06 04:18:18;;;;;;;1.83;1.60;;;4.40;99.90;;;;;;5029456;28;20020;-73
2024/01/06 04:20:46;;;;;;;2.00;1.90;;;4.40;99.90;;;;;;5024261;28;20020;-72
2024/01/06 04:23:15;;;;;;;4.22;1.90;;;4.40;99.90;;;;;;5030807;28;20346;-73
2024/01/06 04:25:41;;;;;;;1.48;1.38;;;4.40;99.90;;;;;;5010544;28;20056;-73
2024/01/06 04:28:07;;;;;;;2.08;1.42;;;4.40;99.90;;;;;;5015242;28;20420;-72
2024/01/06 04:30:32;;;;;;;2.13;1.50;;;4.40;99.90;;;;;;5015050;28;20037;-73
2024/01/06 04:32:58;;;;;;;4.80;1.70;;;4.60;99.90;;;;;;5028883;28;20034;-73
2024/01/06 04:35:25;;;;;;;2.50;1.48;;;4.70;99.90;;;;;;5035323;28;20029;-73
2024/01/06 04:37:51;;;;;;;3.15;1.50;;;4.70;99.90;;;;;;5030346;28;20040;-73
2024/01/06 04:40:16;;;;;;;2.60;2.20;;;4.80;99.90;;;;;;5025691;28;20026;-73
2024/01/06 04:42:42;;;;;;;2.00;1.48;;;4.80;99.90;;;;;;5026561;28;20022;-73
2024/01/06 04:45:08;;;;;;;3.08;1.40;;;4.70;99.90;;;;;;5029885;28;20057;-74
2024/01/06 04:47:34;;;;;;;1.92;1.60;;;4.60;99.90;;;;;;5028341;28;20021;-73
2024/01/06 04:50:00;;;;;;;3.45;1.60;;;4.70;99.90;;;;;;5030545;28;20062;-73
2024/01/06 04:52:26;;;;;;;6.85;1.70;;;4.70;99.90;;;;;;5022529;28;20037;-73
2024/01/06 04:54:52;;;;;;;3.60;1.60;;;4.70;99.90;;;;;;5028627;28;20028;-73
2024/01/06 04:57:18;;;;;;;2.83;1.50;;;4.70;99.90;;;;;;5027723;28;20029;-73
2024/01/06 04:59:43;;;;;;;2.40;1.67;;;4.70;99.90;;;;;;5030325;28;20034;-74
2024/01/06 05:02:10;;;;;;;4.60;1.45;;;4.70;99.90;;;;;;5011519;28;20049;-73
2024/01/06 05:04:35;;;;;;;2.80;1.52;;;4.70;99.90;;;;;;5037072;28;20653;-73
2024/01/06 05:07:01;;;;;;;1.63;1.42;;;4.80;99.90;;;;;;5031219;28;20037;-73
2024/01/06 05:09:27;;;;;;;3.92;1.70;;;4.70;99.90;;;;;;5027698;28;20029;-73
2024/01/06 05:11:52;;;;;;;2.20;1.50;;;4.70;99.90;;;;;;5020747;28;20026;-73
2024/01/06 05:14:18;;;;;;;1.45;1.23;;;4.70;99.90;;;;;;5031280;28;20018;-74
2024/01/06 05:16:43;;;;;;;3.53;1.40;;;4.70;99.90;;;;;;5032394;28;20104;-73
2024/01/06 05:19:09;;;;;;;4.03;1.70;;;4.60;99.90;;;;;;5025720;28;20026;-73
2024/01/06 05:21:35;;;;;;;1.35;1.25;;;4.60;99.90;;;;;;5013510;28;20025;-73
2024/01/06 05:24:00;;;;;;;1.13;1.10;;;4.60;99.90;;;;;;5029675;28;20033;-73
2024/01/06 05:26:26;;;;;;;3.70;1.17;;;4.60;99.90;;;;;;5013396;28;20030;-74
2024/01/06 05:28:52;;;;;;;3.45;1.25;;;4.70;99.90;;;;;;5025061;28;20072;-73
2024/01/06 05:31:18;;;;;;;1.48;1.20;;;4.60;99.90;;;;;;5022575;28;20379;-73
2024/01/06 05:33:44;;;;;;;1.45;1.27;;;4.70;99.90;;;;;;5014755;28;20022;-73
2024/01/06 05:36:10;;;;;;;3.40;1.75;;;4.70;99.90;;;;;;5022664;28;20030;-72
2024/01/06 05:38:38;;;;;;;1.20;1.10;;;4.70;99.90;;;;;;5020614;28;20521;-72
2024/01/06 05:41:04;;;;;;;5.75;1.42;;;4.70;99.90;;;;;;5006951;28;20033;-73
2024/01/06 05:43:29;;;;;;;1.73;1.33;;;4.70;99.90;;;;;;5032545;28;20048;-73
2024/01/06 05:45:55;;;;;;;3.90;1.40;;;4.70;99.90;;;;;;5027644;28;20095;-73
2024/01/06 05:48:21;;;;;;;3.00;1.75;;;4.70;99.90;;;;;;5023642;28;20033;-73
2024/01/06 05:50:46;;;;;;;2.05;1.60;;;4.70;99.90;;;;;;5027672;28;20040;-73
2024/01/06 05:53:14;;;;;;;1.45;1.30;;;4.60;99.90;;;;;;5020567;28;20116;-73
2024/01/06 05:55:39;;;;;;;3.60;1.70;;;4.60;99.90;;;;;;5027425;28;20022;-73
2024/01/06 05:58:05;;;;;;;3.63;1.58;;;4.60;99.90;;;;;;5028357;28;20033;-73
2024/01/06 06:00:34;;;;;;;2.75;1.55;;;4.50;99.90;;;;;;5011156;28;20025;-73
2024/01/06 06:02:59;;;;;;;2.45;1.70;;;4.50;99.90;;;;;;5008319;28;20034;-74
2024/01/06 06:05:26;;;;;;;2.83;1.50;;;4.60;99.90;;;;;;5016249;28;20139;-72
2024/01/06 06:07:52;;;;;;;1.80;1.60;;;4.60;99.90;;;;;;5010548;28;20521;-74
2024/01/06 06:10:18;;;;;;;4.70;1.75;;;4.60;99.90;;;;;;5003498;28;20066;-72
2024/01/06 06:12:44;;;;;;;3.47;1.67;;;4.40;99.90;;;;;;5009224;28;20599;-73
2024/01/06 06:15:10;;;;;;;3.65;2.10;;;4.40;99.90;;;;;;5014323;28;20057;-72
2024/01/06 06:17:36;;;;;;;3.03;2.58;;;4.50;99.90;;;;;;4997713;28;20056;-72
2024/01/06 06:20:03;;;;;;;2.35;1.90;;;4.50;99.90;;;;;;5014418;28;20034;-74
2024/01/06 06:22:30;;;;;;;3.35;2.03;;;4.40;99.90;;;;;;4993377;28;20286;-73
2024/01/06 06:24:59;;;;;;;2.65;1.80;;;4.50;99.90;;;;;;5012953;28;20499;-73
2024/01/06 06:27:26;;;;;;;1.70;1.60;;;4.50;99.90;;;;;;5007271;28;20169;-73
2024/01/06 06:29:52;;;;;;;3.95;1.85;;;4.50;99.90;;;;;;4993895;28;20028;-72
2024/01/06 06:32:18;;;;;;;1.92;1.67;;;4.50;99.90;;;;;;5004676;28;20130;-73
2024/01/06 06:34:44;;;;;;;2.08;1.65;;;4.50;99.90;;;;;;5012286;28;20488;-73
2024/01/06 06:37:09;;;;;;;2.72;1.50;;;4.50;99.90;;;;;;5010259;28;20097;-73
2024/01/06 06:39:35;;;;;;;3.55;2.30;;;4.50;99.90;;;;;;5010913;28;20026;-73
2024/01/06 06:42:04;;;;;;;2.70;1.60;;;4.50;99.90;;;;;;5013582;28;20033;-73
2024/01/06 06:44:30;;;;;;;2.15;1.27;;;4.50;99.90;;;;;;5004988;28;20039;-72
2024/01/06 06:46:56;;;;;;;1.42;1.33;;;4.50;99.90;;;;;;5015613;28;20030;-72
2024/01/06 06:49:22;;;;;;;2.58;1.48;;;4.50;99.90;;;;;;5011772;28;20114;-73
2024/01/06 06:51:48;;;;;;;2.53;1.70;;;4.50;99.90;;;;;;5010621;28;20053;-72
2024/01/06 06:54:15;;;;;;;1.73;1.63;;;4.50;99.90;;;;;;4996099;28;20390;-73
2024/01/06 06:56:41;;;;;;;3.00;1.80;;;4.50;99.90;;;;;;4991124;28;20113;-73
2024/01/06 06:59:07;;;;;;;1.60;1.50;;;4.50;99.90;;;;;;4992265;28;20058;-72
2024/01/06 07:01:34;;;;;;;3.55;1.90;;;4.50;99.90;;;;;;5014727;28;20056;-73
2024/01/06 07:03:59;;;;;;;3.60;2.05;;;4.50;99.90;;;;;;5015450;28;20026;-73
2024/01/06 07:06:25;;;;;;;2.80;1.67;;;4.50;99.90;;;;;;5018797;28;20052;-73
2024/01/06 07:08:53;;;;;;;1.90;1.80;;;4.60;99.90;;;;;;5008584;28;20480;-73
2024/01/06 07:11:19;;;;;;;2.92;1.80;;;4.50;99.90;;;;;;4994908;28;20084;-73
2024/01/06 07:13:45;;;;;;;2.10;1.90;;;4.50;99.90;;;;;;5007553;28;20498;-73
2024/01/06 07:16:11;;;;;;;3.40;1.70;;;4.50;99.90;;;;;;5003216;28;20035;-74
2024/01/06 07:18:37;;;;;;;4.43;1.95;;;4.50;99.90;;;;;;4997387;28;20050;-73
2024/01/06 07:21:06;;;;;;;2.33;1.95;;;4.50;99.90;;;;;;5000412;28;20081;-74
2024/01/06 07:23:32;;;;;;;2.22;2.00;;;4.50;99.90;;;;;;5015259;28;20097;-72
2024/01/06 07:25:57;;;;;;;2.17;1.95;;;4.50;99.90;;;;;;4996691;28;20508;-73
2024/01/06 07:28:23;;;;;;;5.35;2.50;;;4.50;99.90;;;;;;5007503;28;20033;-72
2024/01/06 07:30:49;;;;;;;4.70;2.22;;;4.40;99.90;;;;;;5009052;28;20048;-71
2024/01/06 07:33:15;;;;;;;3.40;2.25;;;4.40;99.90;;;;;;5014944;28;20041;-73
2024/01/06 07:35:43;;;;;;;2.88;2.13;;;4.50;99.90;;;;;;5010641;28;20113;-73
2024/01/06 07:38:10;;;;;;;7.65;2.58;;;4.50;99.90;;;;;;5013620;28;20022;-73
2024/01/06 07:40:36;;;;;;;3.30;2.35;;;4.50;99.90;;;;;;5007816;28;20129;-72
2024/01/06 07:43:02;;;;;;;3.17;2.97;;;4.50;99.90;;;;;;5008261;28;20034;-72
2024/01/06 07:45:27;;;;;;;5.18;3.03;;;4.50;99.90;;;;;;5014968;28;20037;-72
2024/01/06 07:47:53;;;;;;;5.18;2.88;;;4.50;99.90;;;;;;5008886;28;20026;-74
2024/01/06 07:50:19;;;;;;;2.63;2.38;;;4.50;99.90;;;;;;5014656;28;20030;-72
2024/01/06 07:52:44;;;;;;;4.57;2.55;;;4.50;99.90;;;;;;5007694;28;20034;-72
2024/01/06 07:55:10;;;;;;;2.97;2.33;;;4.50;99.90;;;;;;5011450;28;20033;-74
2024/01/06 07:57:35;;;;;;;3.42;2.88;;;4.50;99.90;;;;;;5011576;28;20026;-72
2024/01/06 08:00:01;;;;;;;5.78;2.85;;;4.50;99.90;;;;;;5012629;28;20061;-72
2024/01/06 08:02:27;;;;;;;4.95;2.95;;;4.50;99.90;;;;;;5004702;28;20116;-72
2024/01/06 08:04:55;;;;;;;4.88;2.85;;;4.50;99.90;;;;;;5014967;28;20395;-72
2024/01/06 08:07:21;;;;;;;6.15;3.42;;;4.40;99.90;;;;;;5011107;28;20025;-72
2024/01/06 08:09:46;;;;;;;3.15;2.67;;;4.50;99.90;;;;;;5016925;28;20033;-72
2024/01/06 08:12:12;;;;;;;3.53;2.90;;;4.40;99.90;;;;;;5014623;28;20018;-72
2024/01/06 08:14:38;;;;;;;4.57;3.28;;;4.50;99.90;;;;;;5014650;28;20022;-72
2024/01/06 08:17:03;;;;;;;2.78;2.45;;;4.50;99.90;;;;;;5011287;28;20084;-71
2024/01/06 08:19:30;;;;;;;4.15;2.65;;;4.50;99.90;;;;;;5006944;28;20081;-72
2024/01/06 08:21:56;;;;;;;5.32;3.15;;;4.40;99.90;;;;;;5010767;28;20195;-73
2024/01/06 08:24:22;;;;;;;3.47;2.80;;;4.40;99.90;;;;;;5003726;28;20463;-73
2024/01/06 08:26:48;;;;;;;3.97;2.55;;;4.40;99.90;;;;;;5014278;28;20032;-72
2024/01/06 08:29:14;;;;;;;3.58;2.88;;;4.40;99.90;;;;;;5010571;28;20707;-72
2024/01/06 08:31:40;;;;;;;5.65;3.25;;;4.40;99.90;;;;;;5028114;28;20038;-72
2024/01/06 08:34:07;;;;;;;3.03;2.58;;;4.50;99.90;;;;;;5011344;28;20058;-72
2024/01/06 08:36:34;;;;;;;5.88;3.08;;;4.50;99.90;;;;;;5012992;28;20045;-72
2024/01/06 08:38:59;;;;;;;6.72;3.08;;;4.50;99.90;;;;;;5017672;28;20044;-73
2024/01/06 08:41:25;;;;;;;3.00;2.70;;;4.50;99.90;;;;;;5018422;28;20034;-74
2024/01/06 08:43:57;;;;;;;7.13;3.13;;;4.60;99.90;;;;;;5013078;28;20039;-73
2024/01/06 08:46:26;;;;;;;2.72;2.53;;;4.60;99.90;;;;;;5008125;28;20040;-74
2024/01/06 08:48:55;;;;;;;4.13;3.08;;;4.50;99.90;;;;;;5007952;28;20471;-74
2024/01/06 08:51:27;;;;;;;3.95;3.13;;;4.60;99.90;;;;;;5014771;28;20022;-72
2024/01/06 08:53:55;;;;;;;3.55;3.15;;;4.60;99.90;;;;;;5012638;28;20113;-73
2024/01/06 08:56:30;;;;;;;4.00;2.65;;;4.60;99.90;;;;;;5009541;28;20044;-74
2024/01/06 08:59:02;;;;;;;5.40;2.95;;;4.60;99.90;;;;;;5029282;28;20053;-74
2024/01/06 09:01:28;;;;;;;3.97;3.10;;;4.60;99.90;;;;;;5018777;28;20649;-73
2024/01/06 09:03:54;;;;;;;5.85;3.33;;;4.60;99.90;;;;;;5031315;28;20030;-74
2024/01/06 09:06:20;;;;;;;4.40;3.40;;;4.60;99.90;;;;;;5029494;28;20110;-73
2024/01/06 09:08:48;;;;;;;7.22;4.47;;;4.60;99.90;;;;;;5016445;28;20040;-72
2024/01/06 09:11:23;;;;;;;4.60;3.08;;;4.70;99.90;;;;;;5014495;28;20494;-75
2024/01/06 09:13:52;;;;;;;5.53;3.70;;;4.70;99.90;;;;;;5028938;28;20057;-73
2024/01/06 09:16:41;;;;;;;4.90;3.00;;;4.70;99.90;;;;;;5009522;28;20031;-73
2024/01/06 09:19:07;;;;;;;3.33;2.97;;;4.70;99.90;;;;;;5028246;28;20067;-73
2024/01/06 09:21:36;;;;;;;4.30;2.88;;;4.70;99.90;;;;;;5024574;28;20029;-74
2024/01/06 09:24:06;;;;;;;4.57;3.15;;;4.70;99.90;;;;;;5023659;28;20072;-73
2024/01/06 09:26:55;;;;;;;4.55;3.50;;;4.80;99.90;;;;;;5017326;28;20030;-73
2024/01/06 09:29:51;;;;;;;4.45;3.13;;;4.80;99.90;;;;;;5023851;28;20380;-74
2024/01/06 09:32:22;;;;;;;4.50;3.25;;;4.80;99.90;;;;;;5019406;28;20103;-74
2024/01/06 09:34:51;;;;;;;3.95;2.90;;;4.80;99.90;;;;;;5023838;28;20029;-74
2024/01/06 09:37:17;;;;;;;5.53;3.00;;;4.80;99.90;;;;;;5013942;28;20083;-72
2024/01/06 09:39:49;;;;;;;5.43;3.15;;;4.90;99.90;;;;;;5031631;28;20060;-73
2024/01/06 09:42:15;;;;;;;4.00;3.13;;;4.90;99.90;;;;;;5031011;28;20025;-73
2024/01/06 09:44:41;;;;;;;5.78;3.90;;;4.90;99.90;;;;;;5031159;28;20033;-72
2024/01/06 09:47:10;;;;;;;24.85;14.10;;;4.90;99.90;;;;;;5030886;28;20395;-73
2024/01/06 09:50:09;;;;;;;60.78;31.70;;;4.90;99.90;;;;;;5029426;28;20029;-72
2024/01/06 09:53:04;;;;;;;;;;;;;;;;;;;;;
2024/01/06 09:55:43;;;;;;;13.38;4.78;;;4.90;99.90;;;;;;5032087;28;20303;-73
2024/01/06 09:58:42;;;;;;;;;;;;;;;;;;;;;
2024/01/06 10:01:28;;;;;;;9.35;3.53;;;4.90;99.90;;;;;;5018592;28;20026;-72
2024/01/06 10:04:14;;;;;;;5.72;3.13;;;4.90;99.90;;;;;;5030898;28;20049;-72
2024/01/06 10:06:41;;;;;;;5.43;3.17;;;4.90;99.90;;;;;;4999834;28;20450;-73
2024/01/06 10:09:28;;;;;;;6.13;3.15;;;5.00;99.90;;;;;;5027884;28;20037;-73
2024/01/06 10:11:58;;;;;;;9.90;5.38;;;5.00;99.90;;;;;;5009085;28;20025;-74
2024/01/06 10:14:24;;;;;;;6.90;3.80;;;5.00;99.90;;;;;;5027064;28;20459;-73
2024/01/06 10:17:05;;;;;;;5.85;4.00;;;5.00;99.90;;;;;;5027754;28;20081;-72
2024/01/06 10:19:38;;;;;;;4.22;3.65;;;5.00;99.90;;;;;;5010914;28;20152;-72
2024/01/06 10:22:31;;;;;;;5.45;4.95;;;5.00;99.90;;;;;;5011163;28;20040;-72
2024/01/06 10:24:57;;;;;;;6.45;4.07;;;5.00;99.90;;;;;;5026942;28;20104;-73
2024/01/06 10:27:46;;;;;;;;;;;;;;;;;;;;;
2024/01/06 10:30:18;;;;;;;4.45;3.45;;;5.00;99.90;;;;;;5027076;28;20096;-74
2024/01/06 10:39:46;;;;;;;8.00;2.65;;;5.10;99.90;;;;;;5007796;28;20048;-74
2024/01/06 10:45:17;;;;;;;6.50;3.20;;;5.10;99.90;;;;;;5024383;28;20049;-74
2024/01/06 10:47:52;;;;;;;3.42;3.03;;;5.10;99.90;;;;;;5011970;28;20394;-74
2024/01/06 10:50:30;;;;;;;4.43;3.55;;;5.00;99.90;;;;;;5035045;28;20295;-73
2024/01/06 10:56:24;;;;;;;3.65;2.83;;;5.00;99.90;;;;;;5019586;28;20037;-72
2024/01/06 10:59:25;;;;;;;;;;;;;;;;;;;;;
2024/01/06 11:02:29;;;;;;;5.50;2.58;;;4.70;99.90;;;;;;5031582;28;20054;-73
2024/01/06 11:05:21;;;;;;;4.15;3.50;;;4.60;99.90;;;;;;4966099;28;20037;-72
2024/01/06 11:08:49;;;;;;;;;;;;;;;;;;;;;
2024/01/06 11:11:53;;;;;;;3.03;2.53;;;4.60;99.90;;;;;;4957139;28;20050;-73
2024/01/06 11:14:47;;;;;;;2.88;2.63;;;4.60;99.90;;;;;;4949506;29;20035;-73
2024/01/06 11:17:21;;;;;;;6.80;4.57;;;4.60;99.90;;;;;;4941594;29;20498;-72
2024/01/06 11:19:54;;;;;;;3.65;2.47;;;4.60;99.90;;;;;;5007121;28;20048;-72
2024/01/06 11:22:39;;;;;;;4.82;3.50;;;4.50;99.90;;;;;;5023009;28;20033;-72
2024/01/06 11:25:33;;;;;;;6.28;3.38;;;4.50;99.90;;;;;;5012592;28;20446;-72
2024/01/06 11:28:28;;;;;;;3.20;2.85;;;4.50;99.90;;;;;;5032854;28;20034;-71
2024/01/06 11:32:03;;;;;;;3.78;3.38;;;4.50;99.90;;;;;;4982004;28;20402;-73
2024/01/06 11:34:58;;;;;;;4.20;2.78;;;4.60;99.90;;;;;;5001390;28;20049;-73
2024/01/06 11:37:34;;;;;;;3.00;2.63;;;4.50;99.90;;;;;;5013613;28;20087;-73
2024/01/06 11:40:17;;;;;;;4.93;3.13;;;4.60;99.90;;;;;;5007029;28;20032;-72
2024/01/06 11:43:07;;;;;;;4.03;2.92;;;4.60;99.90;;;;;;5029129;28;20093;-72
2024/01/06 11:49:44;;;;;;;5.70;2.97;;;4.60;99.90;;;;;;5003734;28;20030;-72
2024/01/06 11:55:44;;;;;;;3.55;3.05;;;4.70;99.90;;;;;;5018959;28;20025;-72
2024/01/06 11:58:34;;;;;;;2.80;2.60;;;4.70;99.90;;;;;;4972353;28;20033;-73
2024/01/06 12:01:02;;;;;;;2.65;2.40;;;4.70;99.90;;;;;;5017523;28;20061;-72
2024/01/06 12:04:10;;;;;;;;;;;4.70;99.90;;;;;;5028012;28;20025;-73
2024/01/06 12:07:34;;;;;;;3.28;2.80;;;4.70;99.90;;;;;;5023228;28;19979;-72
2024/01/06 12:11:01;;;;;;;4.00;2.97;;;4.70;99.90;;;;;;4996259;28;20045;-72
2024/01/06 12:13:55;;;;;;;5.97;3.97;;;4.60;99.90;;;;;;4985905;28;20038;-72
2024/01/06 12:16:44;;;;;;;5.55;3.55;;;4.60;99.90;;;;;;5022070;28;20064;-72
2024/01/06 12:19:10;;;;;;;2.35;2.15;;;4.60;99.90;;;;;;4993705;28;20554;-72
2024/01/06 12:21:37;;;;;;;4.18;3.28;;;4.60;99.90;;;;;;5015288;28;20056;-72
2024/01/06 12:24:15;;;;;;;7.60;5.03;;;4.50;99.90;;;;;;5016420;28;20030;-73
2024/01/06 12:27:00;;;;;;;4.68;2.67;;;4.50;99.90;;;;;;5014110;28;20045;-72
2024/01/06 12:29:29;;;;;;;3.85;3.03;;;4.50;99.90;;;;;;5019938;28;20029;-71
2024/01/06 12:32:02;;;;;;;6.15;4.68;;;4.60;99.90;;;;;;5018832;28;20053;-73
2024/01/06 12:34:35;;;;;;;3.90;3.58;;;4.60;99.90;;;;;;5005279;28;20479;-73
2024/01/06 12:37:02;;;;;;;7.63;4.43;;;4.70;99.90;;;;;;5034770;28;20085;-73
2024/01/06 12:39:29;;;;;;;4.28;3.75;;;4.60;99.90;;;;;;5014229;28;20045;-73
2024/01/06 12:41:55;;;;;;;4.53;4.05;;;4.70;99.90;;;;;;5026464;28;20108;-73
2024/01/06 12:44:21;;;;;;;4.72;4.00;;;4.70;99.90;;;;;;5012874;28;20693;-72
2024/01/06 12:46:47;;;;;;;4.18;3.58;;;4.70;99.90;;;;;;5010666;28;20079;-71
2024/01/06 12:49:13;;;;;;;6.20;5.03;;;4.80;99.90;;;;;;5025790;28;20025;-72
2024/01/06 12:51:42;;;;;;;5.40;4.25;;;4.70;99.90;;;;;;5014384;28;20079;-72
2024/01/06 12:54:08;;;;;;;9.80;5.10;;;4.70;99.90;;;;;;5028684;28;20540;-72
2024/01/06 12:56:34;;;;;;;7.45;4.38;;;4.80;99.90;;;;;;5030218;28;20034;-72
2024/01/06 12:59:03;;;;;;;5.72;4.40;;;4.80;99.90;;;;;;5030532;28;20085;-72
2024/01/06 13:01:29;;;;;;;4.30;3.53;;;4.80;99.90;;;;;;5022290;28;20045;-72
2024/01/06 13:03:59;;;;;;;5.95;4.22;;;4.80;99.90;;;;;;4997142;28;20033;-72
2024/01/06 13:06:28;;;;;;;5.03;3.78;;;4.70;99.90;;;;;;5011441;28;20030;-71
2024/01/06 13:08:59;;;;;;;7.13;4.60;;;4.60;99.90;;;;;;5010055;28;20022;-72
2024/01/06 13:11:25;;;;;;;4.90;3.58;;;4.60;99.90;;;;;;5011708;28;20487;-72
2024/01/06 13:13:53;;;;;;;8.68;4.07;;;4.60;99.90;;;;;;5017939;28;20041;-72
2024/01/06 13:16:19;;;;;;;6.30;3.47;;;4.60;99.90;;;;;;4998202;28;20025;-71
2024/01/06 13:18:45;;;;;;;3.80;3.38;;;4.60;99.90;;;;;;4998526;28;20029;-72
2024/01/06 13:21:11;;;;;;;4.25;3.30;;;4.50;99.90;;;;;;5017902;28;20038;-72
2024/01/06 13:23:36;;;;;;;4.75;3.97;;;4.50;99.90;;;;;;4996315;28;20026;-72
2024/01/06 13:26:02;;;;;;;6.93;3.67;;;4.50;99.90;;;;;;5008891;28;20357;-72
2024/01/06 13:28:28;;;;;;;7.57;4.43;;;4.50;99.90;;;;;;4996244;28;20025;-72
2024/01/06 13:30:54;;;;;;;7.22;4.05;;;4.50;99.90;;;;;;5014663;28;20575;-73
2024/01/06 13:33:41;;;;;;;6.47;4.40;;;4.50;99.90;;;;;;4996469;28;20152;-72
2024/01/06 13:36:07;;;;;;;8.48;4.13;;;4.50;99.90;;;;;;5014245;28;20031;-71
2024/01/06 13:38:32;;;;;;;6.65;3.83;;;4.40;99.90;;;;;;4999581;28;20060;-72